sensor_id;sensor_type;location;lat;lon;timestamp;P1;durP1;ratioP1;P2;durP2;ratioP2
36797;SDS011;22748;8.426;99.512;2022-08-19T00:00:11;22.60;;;11.50;;
36797;SDS011;22748;8.426;99.512;2022-08-19T00:02:43;18.20;;;14.07;;
36797;SDS011;22748;8.426;99.512;2022-08-19T00:05:14;25.15;;;18.35;;
36797;SDS011;22748;8.426;99.512;2022-08-19T00:07:45;22.92;;;13.40;;
36797;SDS011;22748;8.426;99.512;2022-08-19T00:10:19;31.20;;;22.87;;
36797;SDS011;22748;8.426;99.512;2022-08-19T00:12:51;20.38;;;10.52;;
36797;SDS011;22748;8.426;99.512;2022-08-19T00:15:23;12.63;;;7.70;;
36797;SDS011;22748;8.426;99.512;2022-08-19T00:17:53;14.30;;;7.45;;
36797;SDS011;22748;8.426;99.512;2022-08-19T00:20:23;16.15;;;10.80;;
36797;SDS011;22748;8.426;99.512;2022-08-19T00:22:53;16.70;;;11.30;;
36797;SDS011;22748;8.426;99.512;2022-08-19T00:25:25;24.13;;;17.08;;
36797;SDS011;22748;8.426;99.512;2022-08-19T00:27:55;59.83;;;41.38;;
36797;SDS011;22748;8.426;99.512;2022-08-19T00:30:28;40.38;;;29.88;;
36797;SDS011;22748;8.426;99.512;2022-08-19T00:32:59;52.58;;;36.72;;
36797;SDS011;22748;8.426;99.512;2022-08-19T00:35:29;29.80;;;19.50;;
36797;SDS011;22748;8.426;99.512;2022-08-19T00:38:01;12.20;;;8.25;;
36797;SDS011;22748;8.426;99.512;2022-08-19T00:40:32;13.43;;;7.03;;
36797;SDS011;22748;8.426;99.512;2022-08-19T00:43:02;11.85;;;7.28;;
36797;SDS011;22748;8.426;99.512;2022-08-19T00:45:40;17.90;;;6.90;;
36797;SDS011;22748;8.426;99.512;2022-08-19T00:48:11;13.43;;;6.25;;
36797;SDS011;22748;8.426;99.512;2022-08-19T00:53:13;11.90;;;5.57;;
36797;SDS011;22748;8.426;99.512;2022-08-19T00:55:45;48.00;;;8.75;;
36797;SDS011;22748;8.426;99.512;2022-08-19T00:58:19;17.70;;;6.38;;
36797;SDS011;22748;8.426;99.512;2022-08-19T01:00:57;13.25;;;6.72;;
36797;SDS011;22748;8.426;99.512;2022-08-19T01:03:29;8.27;;;5.22;;
36797;SDS011;22748;8.426;99.512;2022-08-19T01:05:59;10.88;;;5.70;;
36797;SDS011;22748;8.426;99.512;2022-08-19T01:08:33;9.18;;;5.13;;
36797;SDS011;22748;8.426;99.512;2022-08-19T01:11:08;9.85;;;4.50;;
36797;SDS011;22748;8.426;99.512;2022-08-19T01:13:39;7.93;;;4.63;;
36797;SDS011;22748;8.426;99.512;2022-08-19T01:16:11;9.15;;;4.95;;
36797;SDS011;22748;8.426;99.512;2022-08-19T01:18:45;11.27;;;5.20;;
36797;SDS011;22748;8.426;99.512;2022-08-19T01:21:18;12.52;;;5.13;;
36797;SDS011;22748;8.426;99.512;2022-08-19T01:24:07;18.08;;;7.57;;
36797;SDS011;22748;8.426;99.512;2022-08-19T01:26:42;10.75;;;6.45;;
36797;SDS011;22748;8.426;99.512;2022-08-19T01:29:25;11.55;;;5.45;;
36797;SDS011;22748;8.426;99.512;2022-08-19T01:31:56;10.13;;;5.97;;
36797;SDS011;22748;8.426;99.512;2022-08-19T01:34:28;10.07;;;6.72;;
36797;SDS011;22748;8.426;99.512;2022-08-19T01:37:05;15.85;;;8.93;;
36797;SDS011;22748;8.426;99.512;2022-08-19T01:39:42;14.10;;;7.72;;
36797;SDS011;22748;8.426;99.512;2022-08-19T01:42:12;10.68;;;7.88;;
36797;SDS011;22748;8.426;99.512;2022-08-19T01:44:42;10.43;;;7.47;;
36797;SDS011;22748;8.426;99.512;2022-08-19T01:47:14;13.50;;;7.20;;
36797;SDS011;22748;8.426;99.512;2022-08-19T01:49:44;10.70;;;5.13;;
36797;SDS011;22748;8.426;99.512;2022-08-19T01:52:14;10.00;;;4.45;;
36797;SDS011;22748;8.426;99.512;2022-08-19T01:54:47;8.57;;;6.43;;
36797;SDS011;22748;8.426;99.512;2022-08-19T01:57:17;10.80;;;6.15;;
36797;SDS011;22748;8.426;99.512;2022-08-19T01:59:48;9.30;;;5.88;;
36797;SDS011;22748;8.426;99.512;2022-08-19T02:02:20;15.65;;;14.05;;
36797;SDS011;22748;8.426;99.512;2022-08-19T02:04:51;11.93;;;6.75;;
36797;SDS011;22748;8.426;99.512;2022-08-19T02:07:21;8.45;;;4.85;;
36797;SDS011;22748;8.426;99.512;2022-08-19T02:09:53;8.33;;;4.37;;
36797;SDS011;22748;8.426;99.512;2022-08-19T02:12:23;10.02;;;4.53;;
36797;SDS011;22748;8.426;99.512;2022-08-19T02:14:54;7.38;;;4.03;;
36797;SDS011;22748;8.426;99.512;2022-08-19T02:17:24;11.27;;;3.83;;
36797;SDS011;22748;8.426;99.512;2022-08-19T02:19:54;8.43;;;3.80;;
36797;SDS011;22748;8.426;99.512;2022-08-19T02:22:26;6.72;;;4.25;;
36797;SDS011;22748;8.426;99.512;2022-08-19T02:24:58;5.25;;;3.55;;
36797;SDS011;22748;8.426;99.512;2022-08-19T02:27:35;7.78;;;3.13;;
36797;SDS011;22748;8.426;99.512;2022-08-19T02:30:07;5.90;;;3.25;;
36797;SDS011;22748;8.426;99.512;2022-08-19T02:32:43;7.90;;;4.05;;
36797;SDS011;22748;8.426;99.512;2022-08-19T02:35:15;6.07;;;3.08;;
36797;SDS011;22748;8.426;99.512;2022-08-19T02:37:46;5.82;;;3.05;;
36797;SDS011;22748;8.426;99.512;2022-08-19T02:40:30;6.82;;;2.78;;
36797;SDS011;22748;8.426;99.512;2022-08-19T02:43:03;5.05;;;2.72;;
36797;SDS011;22748;8.426;99.512;2022-08-19T02:45:37;8.50;;;3.35;;
36797;SDS011;22748;8.426;99.512;2022-08-19T02:48:09;6.47;;;2.63;;
36797;SDS011;22748;8.426;99.512;2022-08-19T02:50:42;4.70;;;3.08;;
36797;SDS011;22748;8.426;99.512;2022-08-19T02:53:14;7.95;;;2.92;;
36797;SDS011;22748;8.426;99.512;2022-08-19T02:55:48;11.88;;;5.45;;
36797;SDS011;22748;8.426;99.512;2022-08-19T02:58:20;7.07;;;3.80;;
36797;SDS011;22748;8.426;99.512;2022-08-19T03:00:54;4.53;;;2.65;;
36797;SDS011;22748;8.426;99.512;2022-08-19T03:03:29;6.50;;;2.90;;
36797;SDS011;22748;8.426;99.512;2022-08-19T03:06:04;15.52;;;4.82;;
36797;SDS011;22748;8.426;99.512;2022-08-19T03:08:36;5.25;;;3.38;;
36797;SDS011;22748;8.426;99.512;2022-08-19T03:13:41;7.18;;;2.40;;
36797;SDS011;22748;8.426;99.512;2022-08-19T03:16:13;3.47;;;2.10;;
36797;SDS011;22748;8.426;99.512;2022-08-19T03:18:45;5.70;;;2.60;;
36797;SDS011;22748;8.426;99.512;2022-08-19T03:21:18;6.65;;;3.20;;
36797;SDS011;22748;8.426;99.512;2022-08-19T03:23:53;6.32;;;2.70;;
36797;SDS011;22748;8.426;99.512;2022-08-19T03:26:27;5.63;;;2.55;;
36797;SDS011;22748;8.426;99.512;2022-08-19T03:29:03;3.83;;;2.20;;
36797;SDS011;22748;8.426;99.512;2022-08-19T03:31:36;5.82;;;2.05;;
36797;SDS011;22748;8.426;99.512;2022-08-19T03:34:07;5.60;;;3.38;;
36797;SDS011;22748;8.426;99.512;2022-08-19T03:36:40;7.20;;;3.75;;
36797;SDS011;22748;8.426;99.512;2022-08-19T03:39:12;7.47;;;3.10;;
36797;SDS011;22748;8.426;99.512;2022-08-19T03:41:46;4.88;;;2.83;;
36797;SDS011;22748;8.426;99.512;2022-08-19T03:44:20;4.45;;;3.03;;
36797;SDS011;22748;8.426;99.512;2022-08-19T03:46:53;5.47;;;2.63;;
36797;SDS011;22748;8.426;99.512;2022-08-19T03:49:25;13.10;;;8.30;;
36797;SDS011;22748;8.426;99.512;2022-08-19T03:52:00;5.43;;;3.80;;
36797;SDS011;22748;8.426;99.512;2022-08-19T03:54:34;6.32;;;3.22;;
36797;SDS011;22748;8.426;99.512;2022-08-19T03:57:08;4.25;;;2.70;;
36797;SDS011;22748;8.426;99.512;2022-08-19T03:59:38;7.38;;;3.83;;
36797;SDS011;22748;8.426;99.512;2022-08-19T04:02:08;8.23;;;4.30;;
36797;SDS011;22748;8.426;99.512;2022-08-19T04:04:41;7.60;;;3.80;;
36797;SDS011;22748;8.426;99.512;2022-08-19T04:07:15;15.48;;;4.20;;
36797;SDS011;22748;8.426;99.512;2022-08-19T04:09:48;6.82;;;4.38;;
36797;SDS011;22748;8.426;99.512;2022-08-19T04:12:21;5.80;;;2.60;;
36797;SDS011;22748;8.426;99.512;2022-08-19T04:14:51;5.88;;;2.70;;
36797;SDS011;22748;8.426;99.512;2022-08-19T04:17:22;9.93;;;2.70;;
36797;SDS011;22748;8.426;99.512;2022-08-19T04:22:22;7.00;;;2.88;;
36797;SDS011;22748;8.426;99.512;2022-08-19T04:24:54;9.23;;;3.40;;
36797;SDS011;22748;8.426;99.512;2022-08-19T04:27:26;14.30;;;3.47;;
36797;SDS011;22748;8.426;99.512;2022-08-19T04:29:57;6.47;;;2.10;;
36797;SDS011;22748;8.426;99.512;2022-08-19T04:32:29;9.35;;;2.60;;
36797;SDS011;22748;8.426;99.512;2022-08-19T04:35:03;6.72;;;2.10;;
36797;SDS011;22748;8.426;99.512;2022-08-19T04:37:34;9.35;;;2.38;;
36797;SDS011;22748;8.426;99.512;2022-08-19T04:40:05;6.18;;;2.30;;
36797;SDS011;22748;8.426;99.512;2022-08-19T04:42:52;5.55;;;2.47;;
36797;SDS011;22748;8.426;99.512;2022-08-19T04:45:22;2.63;;;1.77;;
36797;SDS011;22748;8.426;99.512;2022-08-19T04:47:54;5.70;;;1.80;;
36797;SDS011;22748;8.426;99.512;2022-08-19T04:50:26;4.03;;;1.60;;
36797;SDS011;22748;8.426;99.512;2022-08-19T04:52:57;8.52;;;2.10;;
36797;SDS011;22748;8.426;99.512;2022-08-19T04:55:28;14.80;;;2.60;;
36797;SDS011;22748;8.426;99.512;2022-08-19T04:58:00;7.15;;;2.70;;
36797;SDS011;22748;8.426;99.512;2022-08-19T05:00:31;5.03;;;1.60;;
36797;SDS011;22748;8.426;99.512;2022-08-19T05:03:01;4.43;;;1.65;;
36797;SDS011;22748;8.426;99.512;2022-08-19T05:05:31;4.60;;;1.77;;
36797;SDS011;22748;8.426;99.512;2022-08-19T05:08:02;3.85;;;1.85;;
36797;SDS011;22748;8.426;99.512;2022-08-19T05:10:34;8.77;;;3.17;;
36797;SDS011;22748;8.426;99.512;2022-08-19T05:13:07;4.95;;;2.28;;
36797;SDS011;22748;8.426;99.512;2022-08-19T05:15:37;5.75;;;2.10;;
36797;SDS011;22748;8.426;99.512;2022-08-19T05:18:07;10.20;;;2.58;;
36797;SDS011;22748;8.426;99.512;2022-08-19T05:20:52;8.55;;;2.58;;
36797;SDS011;22748;8.426;99.512;2022-08-19T05:23:35;4.07;;;1.98;;
36797;SDS011;22748;8.426;99.512;2022-08-19T05:26:05;3.63;;;1.63;;
36797;SDS011;22748;8.426;99.512;2022-08-19T05:28:39;25.80;;;4.03;;
36797;SDS011;22748;8.426;99.512;2022-08-19T05:31:25;5.57;;;2.00;;
36797;SDS011;22748;8.426;99.512;2022-08-19T05:33:57;6.38;;;2.88;;
36797;SDS011;22748;8.426;99.512;2022-08-19T05:36:32;4.65;;;2.30;;
36797;SDS011;22748;8.426;99.512;2022-08-19T05:39:06;4.10;;;1.90;;
36797;SDS011;22748;8.426;99.512;2022-08-19T05:41:41;4.78;;;2.45;;
36797;SDS011;22748;8.426;99.512;2022-08-19T05:44:14;5.22;;;2.42;;
36797;SDS011;22748;8.426;99.512;2022-08-19T05:46:48;6.05;;;1.65;;
36797;SDS011;22748;8.426;99.512;2022-08-19T05:49:21;6.63;;;3.95;;
36797;SDS011;22748;8.426;99.512;2022-08-19T05:51:53;5.38;;;1.52;;
36797;SDS011;22748;8.426;99.512;2022-08-19T05:54:24;7.57;;;2.10;;
36797;SDS011;22748;8.426;99.512;2022-08-19T05:59:24;3.90;;;1.77;;
36797;SDS011;22748;8.426;99.512;2022-08-19T06:01:56;4.45;;;1.60;;
36797;SDS011;22748;8.426;99.512;2022-08-19T06:04:27;4.10;;;1.50;;
36797;SDS011;22748;8.426;99.512;2022-08-19T06:06:58;3.45;;;1.75;;
36797;SDS011;22748;8.426;99.512;2022-08-19T06:09:29;12.55;;;2.33;;
36797;SDS011;22748;8.426;99.512;2022-08-19T06:14:33;2.70;;;1.60;;
36797;SDS011;22748;8.426;99.512;2022-08-19T06:17:04;6.80;;;2.10;;
36797;SDS011;22748;8.426;99.512;2022-08-19T06:19:35;3.58;;;1.40;;
36797;SDS011;22748;8.426;99.512;2022-08-19T06:22:08;2.88;;;1.02;;
36797;SDS011;22748;8.426;99.512;2022-08-19T06:24:40;2.13;;;1.40;;
36797;SDS011;22748;8.426;99.512;2022-08-19T06:27:12;2.17;;;1.10;;
36797;SDS011;22748;8.426;99.512;2022-08-19T06:29:45;8.45;;;1.38;;
36797;SDS011;22748;8.426;99.512;2022-08-19T06:32:18;5.22;;;1.10;;
36797;SDS011;22748;8.426;99.512;2022-08-19T06:34:50;8.65;;;1.83;;
36797;SDS011;22748;8.426;99.512;2022-08-19T06:37:21;9.57;;;2.35;;
36797;SDS011;22748;8.426;99.512;2022-08-19T06:39:52;4.72;;;1.58;;
36797;SDS011;22748;8.426;99.512;2022-08-19T06:42:23;6.13;;;1.65;;
36797;SDS011;22748;8.426;99.512;2022-08-19T06:47:25;15.82;;;2.40;;
36797;SDS011;22748;8.426;99.512;2022-08-19T06:50:00;7.30;;;1.88;;
36797;SDS011;22748;8.426;99.512;2022-08-19T06:52:33;5.65;;;1.17;;
36797;SDS011;22748;8.426;99.512;2022-08-19T06:55:05;7.68;;;1.73;;
36797;SDS011;22748;8.426;99.512;2022-08-19T06:57:36;7.05;;;2.55;;
36797;SDS011;22748;8.426;99.512;2022-08-19T07:00:09;4.07;;;1.42;;
36797;SDS011;22748;8.426;99.512;2022-08-19T07:02:40;7.20;;;3.63;;
36797;SDS011;22748;8.426;99.512;2022-08-19T07:05:13;6.60;;;1.92;;
36797;SDS011;22748;8.426;99.512;2022-08-19T07:07:45;12.20;;;1.83;;
36797;SDS011;22748;8.426;99.512;2022-08-19T07:10:17;11.38;;;2.08;;
36797;SDS011;22748;8.426;99.512;2022-08-19T07:12:48;7.03;;;1.30;;
36797;SDS011;22748;8.426;99.512;2022-08-19T07:15:21;4.47;;;1.30;;
36797;SDS011;22748;8.426;99.512;2022-08-19T07:17:54;3.03;;;1.10;;
36797;SDS011;22748;8.426;99.512;2022-08-19T07:20:25;3.13;;;1.38;;
36797;SDS011;22748;8.426;99.512;2022-08-19T07:22:57;4.55;;;1.52;;
36797;SDS011;22748;8.426;99.512;2022-08-19T07:25:29;4.95;;;0.88;;
36797;SDS011;22748;8.426;99.512;2022-08-19T07:28:00;3.75;;;0.90;;
36797;SDS011;22748;8.426;99.512;2022-08-19T07:30:32;4.22;;;1.90;;
36797;SDS011;22748;8.426;99.512;2022-08-19T07:33:07;4.35;;;2.00;;
36797;SDS011;22748;8.426;99.512;2022-08-19T07:35:37;3.92;;;2.38;;
36797;SDS011;22748;8.426;99.512;2022-08-19T07:38:11;3.95;;;1.30;;
36797;SDS011;22748;8.426;99.512;2022-08-19T07:40:44;6.65;;;2.55;;
36797;SDS011;22748;8.426;99.512;2022-08-19T07:43:19;3.20;;;1.20;;
36797;SDS011;22748;8.426;99.512;2022-08-19T07:45:54;2.50;;;1.20;;
36797;SDS011;22748;8.426;99.512;2022-08-19T07:48:25;6.00;;;1.55;;
36797;SDS011;22748;8.426;99.512;2022-08-19T07:50:59;2.50;;;1.10;;
36797;SDS011;22748;8.426;99.512;2022-08-19T07:53:36;9.65;;;2.03;;
36797;SDS011;22748;8.426;99.512;2022-08-19T07:56:06;5.38;;;1.10;;
36797;SDS011;22748;8.426;99.512;2022-08-19T07:58:39;6.05;;;2.70;;
36797;SDS011;22748;8.426;99.512;2022-08-19T08:01:14;6.47;;;3.15;;
36797;SDS011;22748;8.426;99.512;2022-08-19T08:03:50;4.35;;;1.60;;
36797;SDS011;22748;8.426;99.512;2022-08-19T08:06:34;6.15;;;1.80;;
36797;SDS011;22748;8.426;99.512;2022-08-19T08:09:19;2.50;;;1.30;;
36797;SDS011;22748;8.426;99.512;2022-08-19T08:11:56;5.47;;;3.22;;
36797;SDS011;22748;8.426;99.512;2022-08-19T08:14:35;3.95;;;1.50;;
36797;SDS011;22748;8.426;99.512;2022-08-19T08:17:17;4.22;;;1.60;;
36797;SDS011;22748;8.426;99.512;2022-08-19T08:19:50;3.50;;;1.58;;
36797;SDS011;22748;8.426;99.512;2022-08-19T08:22:23;9.03;;;2.23;;
36797;SDS011;22748;8.426;99.512;2022-08-19T08:25:11;4.28;;;1.40;;
36797;SDS011;22748;8.426;99.512;2022-08-19T08:27:43;3.00;;;1.33;;
36797;SDS011;22748;8.426;99.512;2022-08-19T08:30:16;9.13;;;1.60;;
36797;SDS011;22748;8.426;99.512;2022-08-19T08:32:53;8.35;;;1.50;;
36797;SDS011;22748;8.426;99.512;2022-08-19T08:35:24;3.83;;;1.65;;
36797;SDS011;22748;8.426;99.512;2022-08-19T08:37:54;5.33;;;2.67;;
36797;SDS011;22748;8.426;99.512;2022-08-19T08:40:29;3.50;;;2.28;;
36797;SDS011;22748;8.426;99.512;2022-08-19T08:43:06;6.85;;;2.53;;
36797;SDS011;22748;8.426;99.512;2022-08-19T08:45:41;10.40;;;5.03;;
36797;SDS011;22748;8.426;99.512;2022-08-19T08:48:18;8.55;;;5.68;;
36797;SDS011;22748;8.426;99.512;2022-08-19T08:50:54;6.07;;;2.47;;
36797;SDS011;22748;8.426;99.512;2022-08-19T08:53:26;9.02;;;2.50;;
36797;SDS011;22748;8.426;99.512;2022-08-19T08:55:57;3.03;;;1.23;;
36797;SDS011;22748;8.426;99.512;2022-08-19T08:58:31;2.80;;;1.52;;
36797;SDS011;22748;8.426;99.512;2022-08-19T09:01:11;5.22;;;1.55;;
36797;SDS011;22748;8.426;99.512;2022-08-19T09:03:43;1.52;;;1.10;;
36797;SDS011;22748;8.426;99.512;2022-08-19T09:06:14;1.95;;;1.02;;
36797;SDS011;22748;8.426;99.512;2022-08-19T09:09:01;3.72;;;1.27;;
36797;SDS011;22748;8.426;99.512;2022-08-19T09:11:37;6.25;;;2.08;;
36797;SDS011;22748;8.426;99.512;2022-08-19T09:14:22;6.00;;;1.88;;
36797;SDS011;22748;8.426;99.512;2022-08-19T09:17:01;4.80;;;2.90;;
36797;SDS011;22748;8.426;99.512;2022-08-19T09:19:46;3.38;;;1.25;;
36797;SDS011;22748;8.426;99.512;2022-08-19T09:22:19;2.45;;;1.20;;
36797;SDS011;22748;8.426;99.512;2022-08-19T09:24:50;2.25;;;1.10;;
36797;SDS011;22748;8.426;99.512;2022-08-19T09:27:24;4.30;;;1.52;;
36797;SDS011;22748;8.426;99.512;2022-08-19T09:29:56;2.40;;;1.92;;
36797;SDS011;22748;8.426;99.512;2022-08-19T09:32:27;6.72;;;4.80;;
36797;SDS011;22748;8.426;99.512;2022-08-19T09:35:00;6.57;;;2.35;;
36797;SDS011;22748;8.426;99.512;2022-08-19T09:37:35;6.15;;;3.95;;
36797;SDS011;22748;8.426;99.512;2022-08-19T09:40:05;4.22;;;3.15;;
36797;SDS011;22748;8.426;99.512;2022-08-19T09:42:40;5.22;;;2.30;;
36797;SDS011;22748;8.426;99.512;2022-08-19T09:45:13;4.63;;;1.80;;
36797;SDS011;22748;8.426;99.512;2022-08-19T09:47:44;5.18;;;2.00;;
36797;SDS011;22748;8.426;99.512;2022-08-19T09:50:16;6.47;;;2.27;;
36797;SDS011;22748;8.426;99.512;2022-08-19T09:52:46;2.67;;;1.40;;
36797;SDS011;22748;8.426;99.512;2022-08-19T09:55:18;2.78;;;1.33;;
36797;SDS011;22748;8.426;99.512;2022-08-19T09:57:53;5.10;;;1.83;;
36797;SDS011;22748;8.426;99.512;2022-08-19T10:00:23;3.95;;;1.48;;
36797;SDS011;22748;8.426;99.512;2022-08-19T10:02:53;7.93;;;1.63;;
36797;SDS011;22748;8.426;99.512;2022-08-19T10:05:25;1.87;;;1.20;;
36797;SDS011;22748;8.426;99.512;2022-08-19T10:08:14;3.47;;;1.00;;
36797;SDS011;22748;8.426;99.512;2022-08-19T10:10:45;4.35;;;1.42;;
36797;SDS011;22748;8.426;99.512;2022-08-19T10:13:18;2.80;;;0.90;;
36797;SDS011;22748;8.426;99.512;2022-08-19T10:15:51;2.35;;;1.05;;
36797;SDS011;22748;8.426;99.512;2022-08-19T10:18:25;1.38;;;1.00;;
36797;SDS011;22748;8.426;99.512;2022-08-19T10:23:35;2.55;;;1.42;;
36797;SDS011;22748;8.426;99.512;2022-08-19T10:26:06;3.38;;;1.52;;
36797;SDS011;22748;8.426;99.512;2022-08-19T10:28:37;6.88;;;2.60;;
36797;SDS011;22748;8.426;99.512;2022-08-19T10:31:08;6.38;;;2.83;;
36797;SDS011;22748;8.426;99.512;2022-08-19T10:33:41;44.38;;;16.52;;
36797;SDS011;22748;8.426;99.512;2022-08-19T10:36:17;28.85;;;11.65;;
36797;SDS011;22748;8.426;99.512;2022-08-19T10:38:58;39.72;;;14.80;;
36797;SDS011;22748;8.426;99.512;2022-08-19T10:41:32;17.42;;;7.68;;
36797;SDS011;22748;8.426;99.512;2022-08-19T10:44:06;34.40;;;13.60;;
36797;SDS011;22748;8.426;99.512;2022-08-19T10:46:38;34.97;;;14.70;;
36797;SDS011;22748;8.426;99.512;2022-08-19T10:49:11;20.17;;;8.13;;
36797;SDS011;22748;8.426;99.512;2022-08-19T10:51:44;14.68;;;7.35;;
36797;SDS011;22748;8.426;99.512;2022-08-19T10:54:29;29.27;;;25.10;;
36797;SDS011;22748;8.426;99.512;2022-08-19T10:57:15;26.60;;;19.92;;
36797;SDS011;22748;8.426;99.512;2022-08-19T10:59:49;20.38;;;18.20;;
36797;SDS011;22748;8.426;99.512;2022-08-19T11:02:21;14.10;;;12.07;;
36797;SDS011;22748;8.426;99.512;2022-08-19T11:04:53;11.35;;;8.10;;
36797;SDS011;22748;8.426;99.512;2022-08-19T11:07:25;9.82;;;6.63;;
36797;SDS011;22748;8.426;99.512;2022-08-19T11:09:55;6.88;;;4.45;;
36797;SDS011;22748;8.426;99.512;2022-08-19T11:12:25;5.97;;;3.78;;
36797;SDS011;22748;8.426;99.512;2022-08-19T11:14:55;7.55;;;3.60;;
36797;SDS011;22748;8.426;99.512;2022-08-19T11:17:27;9.90;;;3.50;;
36797;SDS011;22748;8.426;99.512;2022-08-19T11:19:58;13.30;;;7.03;;
36797;SDS011;22748;8.426;99.512;2022-08-19T11:22:34;19.45;;;8.73;;
36797;SDS011;22748;8.426;99.512;2022-08-19T11:25:06;19.40;;;10.02;;
36797;SDS011;22748;8.426;99.512;2022-08-19T11:27:40;23.65;;;12.00;;
36797;SDS011;22748;8.426;99.512;2022-08-19T11:30:12;19.55;;;11.82;;
36797;SDS011;22748;8.426;99.512;2022-08-19T11:35:14;21.15;;;11.50;;
36797;SDS011;22748;8.426;99.512;2022-08-19T11:37:55;17.67;;;11.23;;
36797;SDS011;22748;8.426;99.512;2022-08-19T11:40:27;24.25;;;12.88;;
36797;SDS011;22748;8.426;99.512;2022-08-19T11:42:59;22.67;;;14.90;;
36797;SDS011;22748;8.426;99.512;2022-08-19T11:45:29;20.40;;;13.02;;
36797;SDS011;22748;8.426;99.512;2022-08-19T11:50:32;28.65;;;18.60;;
36797;SDS011;22748;8.426;99.512;2022-08-19T11:53:03;32.50;;;18.35;;
36797;SDS011;22748;8.426;99.512;2022-08-19T11:55:37;30.92;;;16.10;;
36797;SDS011;22748;8.426;99.512;2022-08-19T11:58:11;32.70;;;18.15;;
36797;SDS011;22748;8.426;99.512;2022-08-19T12:00:42;34.80;;;21.23;;
36797;SDS011;22748;8.426;99.512;2022-08-19T12:03:14;28.02;;;16.42;;
36797;SDS011;22748;8.426;99.512;2022-08-19T12:05:46;24.67;;;16.67;;
36797;SDS011;22748;8.426;99.512;2022-08-19T12:08:20;29.52;;;20.40;;
36797;SDS011;22748;8.426;99.512;2022-08-19T12:10:50;41.47;;;27.13;;
36797;SDS011;22748;8.426;99.512;2022-08-19T12:13:22;51.95;;;34.08;;
36797;SDS011;22748;8.426;99.512;2022-08-19T12:15:54;45.70;;;29.95;;
36797;SDS011;22748;8.426;99.512;2022-08-19T12:18:27;32.92;;;23.35;;
36797;SDS011;22748;8.426;99.512;2022-08-19T12:20:57;30.98;;;21.13;;
36797;SDS011;22748;8.426;99.512;2022-08-19T12:23:31;25.38;;;17.20;;
36797;SDS011;22748;8.426;99.512;2022-08-19T12:26:05;23.25;;;14.48;;
36797;SDS011;22748;8.426;99.512;2022-08-19T12:28:35;18.92;;;13.00;;
36797;SDS011;22748;8.426;99.512;2022-08-19T12:31:06;20.55;;;12.23;;
36797;SDS011;22748;8.426;99.512;2022-08-19T12:33:40;22.20;;;11.77;;
36797;SDS011;22748;8.426;99.512;2022-08-19T12:36:11;24.35;;;14.32;;
36797;SDS011;22748;8.426;99.512;2022-08-19T12:38:47;20.08;;;13.30;;
36797;SDS011;22748;8.426;99.512;2022-08-19T12:41:20;25.83;;;15.32;;
36797;SDS011;22748;8.426;99.512;2022-08-19T12:43:53;29.15;;;18.90;;
36797;SDS011;22748;8.426;99.512;2022-08-19T12:46:26;25.52;;;18.10;;
36797;SDS011;22748;8.426;99.512;2022-08-19T12:48:59;23.50;;;16.50;;
36797;SDS011;22748;8.426;99.512;2022-08-19T12:51:31;21.27;;;15.05;;
36797;SDS011;22748;8.426;99.512;2022-08-19T12:54:02;29.33;;;20.60;;
36797;SDS011;22748;8.426;99.512;2022-08-19T12:56:35;32.70;;;25.17;;
36797;SDS011;22748;8.426;99.512;2022-08-19T12:59:10;43.05;;;31.88;;
36797;SDS011;22748;8.426;99.512;2022-08-19T13:01:44;49.92;;;40.63;;
36797;SDS011;22748;8.426;99.512;2022-08-19T13:04:14;41.57;;;32.53;;
36797;SDS011;22748;8.426;99.512;2022-08-19T13:06:46;28.67;;;20.85;;
36797;SDS011;22748;8.426;99.512;2022-08-19T13:09:24;19.60;;;15.35;;
36797;SDS011;22748;8.426;99.512;2022-08-19T13:11:54;20.40;;;15.48;;
36797;SDS011;22748;8.426;99.512;2022-08-19T13:14:31;19.27;;;14.43;;
36797;SDS011;22748;8.426;99.512;2022-08-19T13:17:02;21.30;;;14.63;;
36797;SDS011;22748;8.426;99.512;2022-08-19T13:19:35;30.92;;;22.58;;
36797;SDS011;22748;8.426;99.512;2022-08-19T13:22:07;36.78;;;24.50;;
36797;SDS011;22748;8.426;99.512;2022-08-19T13:24:39;31.10;;;23.90;;
36797;SDS011;22748;8.426;99.512;2022-08-19T13:27:11;36.05;;;24.80;;
36797;SDS011;22748;8.426;99.512;2022-08-19T13:29:41;35.80;;;23.42;;
36797;SDS011;22748;8.426;99.512;2022-08-19T13:32:26;34.92;;;23.13;;
36797;SDS011;22748;8.426;99.512;2022-08-19T13:35:09;32.30;;;21.90;;
36797;SDS011;22748;8.426;99.512;2022-08-19T13:37:40;32.95;;;23.25;;
36797;SDS011;22748;8.426;99.512;2022-08-19T13:40:13;31.58;;;22.17;;
36797;SDS011;22748;8.426;99.512;2022-08-19T13:42:48;30.77;;;22.50;;
36797;SDS011;22748;8.426;99.512;2022-08-19T13:45:21;31.00;;;22.88;;
36797;SDS011;22748;8.426;99.512;2022-08-19T13:47:54;39.58;;;25.52;;
36797;SDS011;22748;8.426;99.512;2022-08-19T13:52:57;40.95;;;27.80;;
36797;SDS011;22748;8.426;99.512;2022-08-19T13:55:32;34.90;;;26.10;;
36797;SDS011;22748;8.426;99.512;2022-08-19T13:58:03;31.85;;;24.30;;
36797;SDS011;22748;8.426;99.512;2022-08-19T14:00:37;31.33;;;20.48;;
36797;SDS011;22748;8.426;99.512;2022-08-19T14:03:09;23.20;;;17.70;;
36797;SDS011;22748;8.426;99.512;2022-08-19T14:05:41;24.15;;;16.10;;
36797;SDS011;22748;8.426;99.512;2022-08-19T14:08:12;26.13;;;18.63;;
36797;SDS011;22748;8.426;99.512;2022-08-19T14:10:44;44.33;;;26.97;;
36797;SDS011;22748;8.426;99.512;2022-08-19T14:13:18;33.75;;;24.33;;
36797;SDS011;22748;8.426;99.512;2022-08-19T14:15:50;47.97;;;32.60;;
36797;SDS011;22748;8.426;99.512;2022-08-19T14:18:21;45.93;;;32.77;;
36797;SDS011;22748;8.426;99.512;2022-08-19T14:20:51;50.78;;;36.20;;
36797;SDS011;22748;8.426;99.512;2022-08-19T14:23:22;48.45;;;34.25;;
36797;SDS011;22748;8.426;99.512;2022-08-19T14:25:54;41.08;;;30.60;;
36797;SDS011;22748;8.426;99.512;2022-08-19T14:28:36;44.72;;;30.55;;
36797;SDS011;22748;8.426;99.512;2022-08-19T14:31:08;40.67;;;28.38;;
36797;SDS011;22748;8.426;99.512;2022-08-19T14:33:39;45.90;;;31.90;;
36797;SDS011;22748;8.426;99.512;2022-08-19T14:36:12;57.85;;;43.17;;
36797;SDS011;22748;8.426;99.512;2022-08-19T14:38:44;51.47;;;38.30;;
36797;SDS011;22748;8.426;99.512;2022-08-19T14:41:19;47.08;;;39.53;;
36797;SDS011;22748;8.426;99.512;2022-08-19T14:43:52;51.25;;;41.38;;
36797;SDS011;22748;8.426;99.512;2022-08-19T14:46:24;51.45;;;40.92;;
36797;SDS011;22748;8.426;99.512;2022-08-19T14:48:55;43.20;;;31.88;;
36797;SDS011;22748;8.426;99.512;2022-08-19T14:51:25;33.55;;;26.42;;
36797;SDS011;22748;8.426;99.512;2022-08-19T14:53:57;35.40;;;25.83;;
36797;SDS011;22748;8.426;99.512;2022-08-19T14:56:29;36.80;;;24.80;;
36797;SDS011;22748;8.426;99.512;2022-08-19T14:59:00;31.92;;;22.88;;
36797;SDS011;22748;8.426;99.512;2022-08-19T15:01:31;32.25;;;21.13;;
36797;SDS011;22748;8.426;99.512;2022-08-19T15:04:02;28.33;;;19.75;;
36797;SDS011;22748;8.426;99.512;2022-08-19T15:06:33;25.02;;;18.42;;
36797;SDS011;22748;8.426;99.512;2022-08-19T15:09:04;25.40;;;16.95;;
36797;SDS011;22748;8.426;99.512;2022-08-19T15:11:36;20.88;;;16.42;;
36797;SDS011;22748;8.426;99.512;2022-08-19T15:14:06;22.35;;;15.70;;
36797;SDS011;22748;8.426;99.512;2022-08-19T15:16:36;25.37;;;15.10;;
36797;SDS011;22748;8.426;99.512;2022-08-19T15:19:07;18.13;;;13.68;;
36797;SDS011;22748;8.426;99.512;2022-08-19T15:21:38;16.95;;;12.57;;
36797;SDS011;22748;8.426;99.512;2022-08-19T15:24:09;14.87;;;11.97;;
36797;SDS011;22748;8.426;99.512;2022-08-19T15:29:11;16.05;;;11.80;;
36797;SDS011;22748;8.426;99.512;2022-08-19T15:31:43;16.35;;;11.23;;
36797;SDS011;22748;8.426;99.512;2022-08-19T15:34:14;14.45;;;11.25;;
36797;SDS011;22748;8.426;99.512;2022-08-19T15:36:47;15.18;;;10.48;;
36797;SDS011;22748;8.426;99.512;2022-08-19T15:39:18;14.38;;;10.50;;